createdAt,value
2018-02-24T00:00:13.868Z,66.80
2018-02-24T00:02:48.543Z,66.41
2018-02-24T00:05:23.813Z,66.58
2018-02-24T00:07:58.459Z,66.60
2018-02-24T00:10:33.129Z,66.59
2018-02-24T00:13:09.140Z,66.74
2018-02-24T00:15:44.200Z,66.94
2018-02-24T00:18:19.196Z,67.15
2018-02-24T00:20:54.266Z,67.32
2018-02-24T00:23:29.192Z,66.88
2018-02-24T00:26:04.271Z,66.68
2018-02-24T00:28:39.331Z,66.64
2018-02-24T00:31:14.358Z,67.07
2018-02-24T00:33:49.364Z,67.29
2018-02-24T00:36:24.219Z,67.56
2018-02-24T00:38:59.283Z,67.93
2018-02-24T00:41:34.613Z,68.46
2018-02-24T00:44:09.723Z,68.36
2018-02-24T00:46:45.177Z,68.29
2018-02-24T00:49:19.752Z,68.43
2018-02-24T00:51:54.795Z,67.76
2018-02-24T00:54:30.039Z,67.66
2018-02-24T00:57:05.324Z,68.00
2018-02-24T00:59:40.615Z,67.83
2018-02-24T01:02:14.814Z,67.63
2018-02-24T01:04:50.275Z,67.71
2018-02-24T01:07:25.611Z,67.76
2018-02-24T01:10:00.784Z,68.25
2018-02-24T01:12:36.067Z,67.80
2018-02-24T01:15:10.675Z,68.08
2018-02-24T01:17:45.852Z,67.44
2018-02-24T01:20:21.087Z,67.46
2018-02-24T01:22:55.595Z,67.82
2018-02-24T01:25:30.763Z,67.76
2018-02-24T01:28:05.187Z,67.89
2018-02-24T01:30:40.451Z,67.98
2018-02-24T01:33:15.659Z,68.17
2018-02-24T01:35:50.547Z,68.21
2018-02-24T01:38:24.970Z,68.11
2018-02-24T01:40:59.743Z,68.49
2018-02-24T01:43:34.263Z,68.57
2018-02-24T01:46:09.382Z,68.62
2018-02-24T01:48:44.348Z,69.10
2018-02-24T01:51:19.614Z,68.92
2018-02-24T01:53:54.776Z,69.17
2018-02-24T01:56:30.315Z,69.35
2018-02-24T01:59:05.527Z,69.33
2018-02-24T02:01:40.616Z,69.06
2018-02-24T02:04:15.303Z,68.91
2018-02-24T02:06:49.695Z,68.63
2018-02-24T02:09:24.746Z,68.47
2018-02-24T02:12:00.009Z,68.65
2018-02-24T02:14:35.383Z,68.92
2018-02-24T02:17:10.533Z,68.83
2018-02-24T02:19:45.575Z,68.44
2018-02-24T02:22:21.379Z,68.21
2018-02-24T02:24:55.835Z,68.04
2018-02-24T02:27:31.399Z,68.04
2018-02-24T02:30:06.608Z,68.96
2018-02-24T02:32:41.447Z,69.31
2018-02-24T02:35:15.823Z,69.48
2018-02-24T02:37:50.593Z,69.85
2018-02-24T02:40:25.437Z,69.78
2018-02-24T02:43:00.463Z,70.00
2018-02-24T02:45:35.017Z,70.09
2018-02-24T02:48:10.066Z,70.04
2018-02-24T02:50:44.873Z,69.98
2018-02-24T02:53:19.756Z,69.68
2018-02-24T02:55:54.729Z,69.62
2018-02-24T02:58:29.613Z,70.07
2018-02-24T03:01:04.566Z,69.92
2018-02-24T03:03:39.723Z,69.88
2018-02-24T03:06:15.447Z,69.62
2018-02-24T03:08:50.586Z,69.84
2018-02-24T03:11:26.115Z,70.16
2018-02-24T03:14:01.113Z,70.37
2018-02-24T03:16:35.663Z,70.29
2018-02-24T03:19:10.959Z,70.08
2018-02-24T03:21:45.795Z,69.78
2018-02-24T03:24:21.051Z,69.92
2018-02-24T03:26:56.551Z,69.88
2018-02-24T03:29:31.663Z,69.54
2018-02-24T03:32:06.019Z,69.88
2018-02-24T03:34:41.259Z,69.80
2018-02-24T03:37:16.830Z,69.54
2018-02-24T03:39:51.948Z,69.94
2018-02-24T03:42:26.440Z,70.00
2018-02-24T03:45:00.956Z,70.20
2018-02-24T03:47:35.736Z,70.10
2018-02-24T03:50:10.867Z,70.47
2018-02-24T03:52:45.590Z,70.53
2018-02-24T03:55:20.655Z,70.42
2018-02-24T03:57:55.668Z,70.66
2018-02-24T04:00:30.671Z,70.73
2018-02-24T04:03:05.057Z,70.26
2018-02-24T04:05:40.267Z,70.25
2018-02-24T04:08:15.691Z,70.77
2018-02-24T04:10:50.852Z,70.91
2018-02-24T04:13:25.896Z,71.11
2018-02-24T04:16:00.515Z,71.09
2018-02-24T04:18:35.811Z,71.26
2018-02-24T04:21:10.848Z,71.20
2018-02-24T04:23:45.848Z,71.70
2018-02-24T04:26:21.019Z,71.77
2018-02-24T04:28:55.999Z,71.62
2018-02-24T04:31:30.691Z,71.58
2018-02-24T04:34:05.840Z,72.16
2018-02-24T04:36:41.003Z,72.16
2018-02-24T04:39:15.755Z,72.40
2018-02-24T04:41:50.944Z,72.73
2018-02-24T04:44:26.049Z,73.04
2018-02-24T04:47:00.511Z,72.61
2018-02-24T04:49:34.956Z,72.48
2018-02-24T04:52:10.119Z,72.65
2018-02-24T04:54:45.160Z,72.74
2018-02-24T04:57:20.654Z,72.52
2018-02-24T04:59:55.867Z,72.20
2018-02-24T05:02:31.028Z,72.05
2018-02-24T05:05:05.772Z,72.08
2018-02-24T05:07:40.855Z,71.89
2018-02-24T05:10:16.032Z,72.19
2018-02-24T05:12:50.387Z,72.68
2018-02-24T05:15:25.135Z,72.67
2018-02-24T05:18:00.648Z,72.58
2018-02-24T05:20:35.145Z,72.10
2018-02-24T05:23:10.688Z,72.20
2018-02-24T05:25:45.790Z,72.42
2018-02-24T05:28:20.358Z,72.04
2018-02-24T05:30:55.234Z,71.79
2018-02-24T05:33:29.931Z,71.96
2018-02-24T05:36:04.607Z,72.16
2018-02-24T05:38:39.911Z,72.33
2018-02-24T05:41:15.076Z,72.39
2018-02-24T05:43:50.299Z,71.89
2018-02-24T05:46:26.092Z,71.24
2018-02-24T05:49:00.859Z,71.17
2018-02-24T05:51:35.643Z,71.20
2018-02-24T05:54:10.341Z,71.68
2018-02-24T05:56:45.307Z,71.68
2018-02-24T05:59:20.980Z,71.38
2018-02-24T06:01:55.768Z,71.46
2018-02-24T06:04:30.811Z,71.87
2018-02-24T06:07:05.423Z,72.42
2018-02-24T06:09:40.282Z,72.66
2018-02-24T06:12:14.944Z,72.64
2018-02-24T06:14:49.879Z,73.05
2018-02-24T06:17:25.134Z,73.41
2018-02-24T06:20:00.401Z,73.30
2018-02-24T06:22:35.688Z,73.31
2018-02-24T06:25:10.387Z,73.18
2018-02-24T06:27:45.925Z,73.34
2018-02-24T06:30:20.879Z,73.86
2018-02-24T06:32:55.355Z,74.09
2018-02-24T06:35:30.392Z,74.36
2018-02-24T06:38:05.835Z,74.76
2018-02-24T06:40:40.830Z,74.71
2018-02-24T06:43:16.029Z,74.87
2018-02-24T06:45:51.104Z,74.75
2018-02-24T06:48:26.179Z,75.00
2018-02-24T06:51:01.183Z,74.97
2018-02-24T06:53:35.524Z,74.61
2018-02-24T06:56:10.391Z,74.40
2018-02-24T06:58:45.432Z,74.42
2018-02-24T07:01:20.522Z,74.27
2018-02-24T07:03:55.123Z,74.08
2018-02-24T07:06:30.431Z,73.78
2018-02-24T07:09:05.982Z,73.84
2018-02-24T07:11:41.192Z,73.50
2018-02-24T07:14:15.547Z,73.31
2018-02-24T07:16:50.098Z,72.91
2018-02-24T07:19:26.117Z,72.50
2018-02-24T07:22:00.911Z,71.92
2018-02-24T07:24:35.944Z,71.75
2018-02-24T07:27:11.308Z,71.44
2018-02-24T07:29:46.191Z,71.65
2018-02-24T07:32:21.432Z,72.01
2018-02-24T07:38:42.203Z,72.30
2018-02-24T07:41:17.504Z,72.43
2018-02-24T07:43:52.071Z,73.14
2018-02-24T07:46:27.615Z,73.47
2018-02-24T07:49:02.722Z,73.59
2018-02-24T07:51:38.223Z,73.28
2018-02-24T07:54:13.334Z,72.95
2018-02-24T07:56:48.405Z,72.49
2018-02-24T07:59:25.850Z,72.24
2018-02-24T08:02:01.264Z,72.33
2018-02-24T08:04:36.335Z,72.42
2018-02-24T08:07:10.971Z,72.51
2018-02-24T08:09:49.830Z,72.52
2018-02-24T08:12:24.419Z,72.36
2018-02-24T08:14:59.076Z,72.31
2018-02-24T08:17:34.667Z,72.49
2018-02-24T08:20:09.931Z,72.83
2018-02-24T08:22:45.079Z,73.10
2018-02-24T08:25:20.555Z,73.23
2018-02-24T08:27:55.152Z,73.16
2018-02-24T08:30:30.199Z,73.26
2018-02-24T08:33:05.106Z,73.19
2018-02-24T08:35:40.932Z,72.82
2018-02-24T08:38:16.080Z,73.06
2018-02-24T08:40:51.230Z,73.32
2018-02-24T08:43:26.839Z,73.29
2018-02-24T08:46:01.817Z,72.93
2018-02-24T08:48:36.559Z,73.09
2018-02-24T08:51:10.995Z,73.16
2018-02-24T08:53:45.651Z,73.14
2018-02-24T08:56:20.715Z,73.22
2018-02-24T08:58:55.822Z,73.56
2018-02-24T09:01:30.931Z,74.02
2018-02-24T09:04:06.567Z,73.74
2018-02-24T09:06:41.523Z,74.01
2018-02-24T09:09:16.315Z,74.61
2018-02-24T09:11:50.880Z,74.78
2018-02-24T09:14:25.227Z,75.01
2018-02-24T09:17:00.115Z,75.17
2018-02-24T09:19:35.226Z,75.42
2018-02-24T09:22:10.700Z,75.39
2018-02-24T09:24:46.011Z,75.21
2018-02-24T09:27:20.721Z,75.29
2018-02-24T09:29:56.165Z,75.84
2018-02-24T09:32:31.044Z,76.04
2018-02-24T09:35:05.800Z,75.61
2018-02-24T09:37:40.937Z,75.48
2018-02-24T09:40:15.399Z,75.44
2018-02-24T09:42:50.315Z,76.10
2018-02-24T09:45:25.331Z,76.72
2018-02-24T09:48:00.884Z,75.95
2018-02-24T09:50:36.135Z,75.62
2018-02-24T09:53:10.858Z,75.15
2018-02-24T09:55:45.245Z,75.07
2018-02-24T09:58:20.396Z,75.52
2018-02-24T10:00:55.791Z,75.67
2018-02-24T10:03:31.241Z,76.30
2018-02-24T10:06:06.828Z,75.82
2018-02-24T10:08:42.533Z,75.37
2018-02-24T10:11:17.940Z,75.81
2018-02-24T10:13:54.432Z,75.04
2018-02-24T10:16:29.204Z,75.32
2018-02-24T10:19:03.880Z,74.97
2018-02-24T10:21:39.166Z,73.21
2018-02-24T10:24:14.012Z,72.41
2018-02-24T10:26:49.907Z,72.22
2018-02-24T10:29:25.298Z,71.87
2018-02-24T10:31:59.947Z,71.78
2018-02-24T10:34:35.181Z,72.60
2018-02-24T10:37:10.380Z,72.68
2018-02-24T10:39:44.942Z,72.16
2018-02-24T10:42:19.407Z,71.57
2018-02-24T10:44:54.268Z,71.58
2018-02-24T10:47:30.251Z,71.92
2018-02-24T10:50:05.983Z,71.74
2018-02-24T10:52:41.216Z,71.44
2018-02-24T10:55:16.481Z,69.80
2018-02-24T10:57:52.059Z,69.27
2018-02-24T11:00:27.295Z,68.82
2018-02-24T11:03:02.168Z,68.24
2018-02-24T11:05:37.299Z,67.93
2018-02-24T11:08:13.375Z,68.53
2018-02-24T11:10:48.092Z,68.18
2018-02-24T11:13:23.719Z,69.16
2018-02-24T11:15:58.524Z,68.03
2018-02-24T11:18:34.091Z,68.35
2018-02-24T11:21:09.188Z,69.75
2018-02-24T11:23:44.279Z,68.83
2018-02-24T11:26:19.591Z,68.80
2018-02-24T11:28:54.579Z,68.02
2018-02-24T11:31:29.383Z,67.03
2018-02-24T11:34:04.480Z,68.60
2018-02-24T11:36:39.613Z,69.96
2018-02-24T11:39:14.580Z,70.33
2018-02-24T11:41:50.272Z,70.44
2018-02-24T11:44:25.944Z,70.15
2018-02-24T11:47:01.120Z,70.64
2018-02-24T11:49:36.414Z,71.07
2018-02-24T11:52:11.476Z,70.70
2018-02-24T11:54:46.148Z,70.75
2018-02-24T11:57:20.512Z,71.33
2018-02-24T11:59:55.754Z,71.65
2018-02-24T12:02:31.431Z,71.92
2018-02-24T12:05:06.431Z,72.24
2018-02-24T12:07:41.524Z,71.99
2018-02-24T12:10:16.104Z,70.51
2018-02-24T12:12:51.287Z,69.65
2018-02-24T12:15:26.557Z,67.51
2018-02-24T12:18:01.607Z,66.32
2018-02-24T12:20:36.728Z,61.89
2018-02-24T12:23:11.371Z,62.05
2018-02-24T12:25:46.403Z,62.65
2018-02-24T12:28:21.422Z,62.66
2018-02-24T12:30:56.324Z,62.93
2018-02-24T12:33:31.512Z,62.86
2018-02-24T12:36:06.797Z,61.29
2018-02-24T12:38:41.287Z,58.90
2018-02-24T12:41:16.519Z,59.27
2018-02-24T12:43:51.628Z,57.14
2018-02-24T12:46:27.576Z,56.13
2018-02-24T12:49:03.342Z,55.97
2018-02-24T12:51:38.578Z,55.80
2018-02-24T12:54:13.794Z,56.10
2018-02-24T12:56:48.394Z,56.63
2018-02-24T12:59:23.644Z,54.64
2018-02-24T13:01:58.619Z,53.56
2018-02-24T13:04:33.623Z,53.36
2018-02-24T13:07:08.475Z,53.43
2018-02-24T13:09:43.368Z,52.89
2018-02-24T13:12:18.372Z,53.42
2018-02-24T13:14:52.819Z,52.67
2018-02-24T13:17:27.491Z,53.77
2018-02-24T13:20:02.316Z,52.93
2018-02-24T13:22:37.454Z,53.96
2018-02-24T13:25:14.013Z,53.12
2018-02-24T13:27:49.912Z,53.06
2018-02-24T13:30:25.364Z,52.90
2018-02-24T13:33:00.068Z,52.02
2018-02-24T13:35:34.503Z,50.71
2018-02-24T13:38:13.207Z,48.43
2018-02-24T13:40:47.680Z,49.40
2018-02-24T13:43:22.325Z,49.21
2018-02-24T13:45:58.077Z,49.44
2018-02-24T13:48:33.443Z,49.94
2018-02-24T13:51:08.403Z,49.42
2018-02-24T13:53:43.651Z,50.02
2018-02-24T13:56:18.259Z,49.36
2018-02-24T13:58:53.423Z,50.41
2018-02-24T14:01:28.350Z,49.35
2018-02-24T14:04:02.976Z,48.37
2018-02-24T14:06:38.654Z,48.13
2018-02-24T14:09:13.884Z,47.16
2018-02-24T14:11:48.444Z,47.05
2018-02-24T14:14:23.724Z,45.93
2018-02-24T14:16:58.856Z,46.79
2018-02-24T14:19:33.847Z,46.32
2018-02-24T14:22:09.115Z,46.50
2018-02-24T14:24:43.987Z,47.32
2018-02-24T14:27:18.843Z,47.51
2018-02-24T14:29:53.539Z,46.84
2018-02-24T14:32:28.755Z,46.76
2018-02-24T14:35:03.644Z,47.94
2018-02-24T14:37:38.787Z,49.09
2018-02-24T14:40:13.923Z,48.85
2018-02-24T14:42:48.632Z,49.41
2018-02-24T14:45:23.611Z,49.13
2018-02-24T14:47:58.622Z,49.14
2018-02-24T14:50:33.951Z,48.24
2018-02-24T14:53:08.736Z,47.65
2018-02-24T14:55:43.708Z,47.66
2018-02-24T14:58:18.879Z,49.00
2018-02-24T15:00:53.868Z,50.64
2018-02-24T15:03:28.760Z,50.48
2018-02-24T15:06:03.475Z,51.03
2018-02-24T15:08:38.623Z,51.46
2018-02-24T15:11:13.847Z,51.73
2018-02-24T15:13:48.587Z,50.77
2018-02-24T15:16:23.819Z,50.59
2018-02-24T15:18:58.843Z,49.94
2018-02-24T15:21:33.792Z,50.17
2018-02-24T15:24:08.883Z,51.36
2018-02-24T15:26:44.068Z,52.02
2018-02-24T15:29:18.881Z,52.27
2018-02-24T15:31:53.227Z,52.87
2018-02-24T15:34:28.083Z,53.09
2018-02-24T15:37:02.728Z,52.66
2018-02-24T15:39:38.155Z,52.97
2018-02-24T15:42:12.924Z,53.44
2018-02-24T15:44:47.915Z,53.97
2018-02-24T15:47:23.052Z,54.19
2018-02-24T15:49:57.835Z,53.64
2018-02-24T15:52:33.084Z,53.99
2018-02-24T15:55:08.228Z,54.16
2018-02-24T15:57:43.879Z,53.16
2018-02-24T16:00:18.959Z,52.82
2018-02-24T16:02:54.208Z,52.33
2018-02-24T16:05:29.381Z,52.30
2018-02-24T16:08:04.037Z,52.62
2018-02-24T16:10:39.384Z,52.67
2018-02-24T16:13:13.942Z,52.56
2018-02-24T16:15:49.019Z,52.79
2018-02-24T16:18:23.865Z,52.48
2018-02-24T16:20:59.036Z,53.49
2018-02-24T16:23:34.076Z,54.16
2018-02-24T16:26:09.070Z,54.07
2018-02-24T16:28:44.112Z,53.83
2018-02-24T16:31:19.248Z,53.15
2018-02-24T16:33:54.223Z,53.46
2018-02-24T16:36:29.498Z,53.51
2018-02-24T16:39:03.904Z,53.64
2018-02-24T16:41:38.384Z,54.05
2018-02-24T16:44:13.679Z,54.10
2018-02-24T16:46:48.287Z,53.86
2018-02-24T16:49:22.984Z,53.95
2018-02-24T16:51:58.327Z,54.19
2018-02-24T16:54:33.483Z,54.42
2018-02-24T16:57:08.531Z,54.16
2018-02-24T16:59:43.396Z,54.85
2018-02-24T17:02:18.380Z,55.31
2018-02-24T17:04:53.107Z,53.97
2018-02-24T17:07:28.124Z,54.38
2018-02-24T17:10:03.391Z,54.43
2018-02-24T17:12:38.304Z,54.42
2018-02-24T17:15:13.247Z,55.12
2018-02-24T17:17:48.547Z,54.88
2018-02-24T17:20:24.209Z,55.11
2018-02-24T17:22:59.352Z,54.81
2018-02-24T17:25:34.527Z,55.25
2018-02-24T17:28:09.631Z,55.16
2018-02-24T17:30:45.245Z,55.99
2018-02-24T17:33:20.367Z,55.80
2018-02-24T17:35:55.571Z,55.95
2018-02-24T17:38:30.588Z,55.68
2018-02-24T17:41:05.771Z,55.69
2018-02-24T17:43:41.467Z,55.93
2018-02-24T17:46:16.190Z,56.18
2018-02-24T17:48:51.340Z,56.34
2018-02-24T17:51:26.730Z,56.50
2018-02-24T17:54:01.828Z,56.55
2018-02-24T17:56:37.471Z,56.48
2018-02-24T17:59:12.335Z,56.36
2018-02-24T18:01:47.639Z,56.46
2018-02-24T18:04:22.548Z,56.80
2018-02-24T18:06:57.559Z,56.82
2018-02-24T18:09:32.650Z,56.51
2018-02-24T18:12:07.334Z,55.47
2018-02-24T18:14:42.432Z,55.50
2018-02-24T18:17:17.300Z,55.78
2018-02-24T18:19:52.394Z,55.46
2018-02-24T18:22:26.737Z,55.62
2018-02-24T18:25:01.455Z,55.43
2018-02-24T18:27:36.476Z,55.74
2018-02-24T18:30:11.617Z,55.93
2018-02-24T18:32:46.781Z,55.73
2018-02-24T18:35:22.630Z,55.76
2018-02-24T18:37:57.267Z,56.24
2018-02-24T18:40:32.677Z,56.79
2018-02-24T18:43:07.876Z,56.23
2018-02-24T18:45:43.320Z,56.95
2018-02-24T18:48:18.068Z,56.45
2018-02-24T18:50:53.432Z,55.90
2018-02-24T18:53:28.475Z,55.88
2018-02-24T18:56:03.700Z,55.83
2018-02-24T18:58:38.701Z,55.79
2018-02-24T19:01:13.840Z,55.77
2018-02-24T19:03:48.834Z,55.69
2018-02-24T19:06:23.472Z,55.76
2018-02-24T19:08:59.887Z,55.88
2018-02-24T19:11:35.432Z,55.95
2018-02-24T19:14:10.264Z,56.22
2018-02-24T19:16:44.765Z,56.40
2018-02-24T19:19:19.484Z,56.57
2018-02-24T19:21:54.700Z,57.24
2018-02-24T19:24:29.685Z,57.52
2018-02-24T19:27:04.312Z,57.84
2018-02-24T19:29:39.259Z,58.56
2018-02-24T19:32:13.915Z,59.11
2018-02-24T19:34:48.644Z,59.31
2018-02-24T19:37:23.911Z,59.50
2018-02-24T19:39:59.065Z,59.62
2018-02-24T19:42:33.995Z,60.09
2018-02-24T19:45:08.567Z,60.10
2018-02-24T19:47:43.508Z,59.96
2018-02-24T19:50:18.520Z,60.66
2018-02-24T19:52:53.812Z,60.61
2018-02-24T19:55:29.044Z,60.84
2018-02-24T19:58:04.074Z,60.92
2018-02-24T20:00:39.522Z,60.99
2018-02-24T20:03:14.649Z,60.75
2018-02-24T20:05:49.743Z,60.97
2018-02-24T20:08:24.617Z,60.95
2018-02-24T20:10:59.372Z,61.10
2018-02-24T20:13:35.633Z,60.71
2018-02-24T20:22:36.245Z,60.84
2018-02-24T20:25:11.488Z,60.89
2018-02-24T20:27:46.704Z,61.12
2018-02-24T20:30:21.659Z,61.50
2018-02-24T20:32:56.651Z,61.76
2018-02-24T20:35:31.527Z,61.74
2018-02-24T20:38:05.982Z,61.82
2018-02-24T20:40:41.629Z,61.88
2018-02-24T20:43:16.660Z,61.67
2018-02-24T20:45:51.620Z,61.44
2018-02-24T20:48:27.016Z,61.14
2018-02-24T20:51:01.684Z,60.96
2018-02-24T20:53:36.436Z,61.07
2018-02-24T20:56:11.172Z,61.21
2018-02-24T20:58:45.564Z,61.39
2018-02-24T21:01:20.548Z,61.46
2018-02-24T21:03:55.999Z,61.24
2018-02-24T21:06:31.027Z,61.22
2018-02-24T21:09:05.596Z,61.18
2018-02-24T21:11:40.310Z,61.08
2018-02-24T21:14:15.713Z,61.24
2018-02-24T21:16:50.823Z,61.19
2018-02-24T21:19:27.051Z,61.07
2018-02-24T21:22:02.635Z,61.06
2018-02-24T21:24:37.841Z,60.88
2018-02-24T21:27:12.597Z,60.83
2018-02-24T21:29:47.774Z,60.88
2018-02-24T21:32:23.160Z,60.77
2018-02-24T21:34:57.523Z,61.37
2018-02-24T21:37:32.471Z,61.73
2018-02-24T21:40:07.072Z,61.53
2018-02-24T21:42:41.694Z,61.65
2018-02-24T21:45:16.795Z,61.65
2018-02-24T21:47:51.771Z,61.60
2018-02-24T21:50:27.129Z,61.38
2018-02-24T21:53:01.799Z,61.34
2018-02-24T21:55:37.072Z,61.86
2018-02-24T21:58:11.941Z,61.67
2018-02-24T22:00:46.880Z,61.89
2018-02-24T22:03:21.822Z,61.72
2018-02-24T22:05:56.792Z,61.68
2018-02-24T22:08:31.124Z,61.63
2018-02-24T22:11:06.155Z,62.72
2018-02-24T22:13:42.019Z,64.10
2018-02-24T22:16:16.970Z,61.79
2018-02-24T22:18:52.167Z,61.79
2018-02-24T22:21:27.325Z,61.39
2018-02-24T22:24:01.988Z,61.23
2018-02-24T22:26:37.316Z,61.42
2018-02-24T22:29:11.857Z,61.30
2018-02-24T22:31:47.067Z,61.67
2018-02-24T22:34:22.793Z,62.29
2018-02-24T22:36:57.451Z,62.36
2018-02-24T22:39:32.988Z,62.72
2018-02-24T22:42:07.884Z,62.95
2018-02-24T22:44:42.353Z,63.12
2018-02-24T22:47:16.883Z,63.01
2018-02-24T22:49:52.131Z,63.29
2018-02-24T22:52:27.288Z,63.62
2018-02-24T22:55:02.375Z,63.30
2018-02-24T22:57:37.319Z,63.32
2018-02-24T23:00:13.816Z,63.14
2018-02-24T23:02:48.963Z,63.16
2018-02-24T23:05:23.995Z,63.05
2018-02-24T23:07:59.035Z,62.98
2018-02-24T23:10:34.487Z,62.99
2018-02-24T23:13:09.584Z,63.19
2018-02-24T23:15:44.556Z,63.28
2018-02-24T23:18:19.846Z,63.71
2018-02-24T23:20:55.047Z,63.56
2018-02-24T23:23:29.961Z,63.37
2018-02-24T23:26:04.945Z,63.75
2018-02-24T23:28:40.220Z,64.04
2018-02-24T23:31:15.100Z,63.91
2018-02-24T23:33:50.207Z,64.06
2018-02-24T23:36:25.552Z,63.95
2018-02-24T23:39:00.445Z,63.88
2018-02-24T23:41:35.361Z,63.80
2018-02-24T23:44:10.893Z,63.76
2018-02-24T23:46:46.620Z,63.75
2018-02-24T23:49:21.155Z,73.40
2018-02-24T23:51:56.129Z,72.81
2018-02-24T23:54:31.356Z,66.19
2018-02-24T23:57:06.128Z,63.00
2018-02-24T23:59:41.288Z,61.71
